sensor_id;sensor_type;location;lat;lon;timestamp;temperature;humidity
16388;DHT22;8303;53.446;9.988;2023-07-20T04:41:30;14.20;1.00
16388;DHT22;8303;53.446;9.988;2023-07-20T04:43:58;14.10;82.90
16388;DHT22;8303;53.446;9.988;2023-07-20T04:46:24;14.20;99.90
16388;DHT22;8303;53.446;9.988;2023-07-20T04:48:53;14.30;99.90
16388;DHT22;8303;53.446;9.988;2023-07-20T04:51:20;14.40;1.00
16388;DHT22;8303;53.446;9.988;2023-07-20T04:53:48;14.40;1.00
16388;DHT22;8303;53.446;9.988;2023-07-20T04:56:15;14.60;1.00
16388;DHT22;8303;53.446;9.988;2023-07-20T04:58:43;14.60;1.00
16388;DHT22;8303;53.446;9.988;2023-07-20T05:01:11;14.60;99.90
16388;DHT22;8303;53.446;9.988;2023-07-20T05:03:38;14.60;1.00
16388;DHT22;8303;53.446;9.988;2023-07-20T05:06:05;14.70;1.00
16388;DHT22;8303;53.446;9.988;2023-07-20T05:08:32;14.60;99.90
16388;DHT22;8303;53.446;9.988;2023-07-20T05:10:59;14.60;1.00
16388;DHT22;8303;53.446;9.988;2023-07-20T05:13:26;14.60;1.00
16388;DHT22;8303;53.446;9.988;2023-07-20T05:15:55;14.50;1.00
16388;DHT22;8303;53.446;9.988;2023-07-20T05:18:23;14.60;1.00
16388;DHT22;8303;53.446;9.988;2023-07-20T05:20:50;14.60;99.90
16388;DHT22;8303;53.446;9.988;2023-07-20T05:23:18;14.50;99.90
16388;DHT22;8303;53.446;9.988;2023-07-20T05:25:46;14.60;1.00
16388;DHT22;8303;53.446;9.988;2023-07-20T05:28:13;14.60;1.00
16388;DHT22;8303;53.446;9.988;2023-07-20T05:30:40;14.70;99.90
16388;DHT22;8303;53.446;9.988;2023-07-20T05:33:08;14.80;99.90
16388;DHT22;8303;53.446;9.988;2023-07-20T05:35:36;14.90;99.90
16388;DHT22;8303;53.446;9.988;2023-07-20T05:38:03;14.80;1.00
16388;DHT22;8303;53.446;9.988;2023-07-20T05:40:32;14.80;1.00
16388;DHT22;8303;53.446;9.988;2023-07-20T05:42:59;14.80;1.00
16388;DHT22;8303;53.446;9.988;2023-07-20T05:45:26;14.90;1.00
16388;DHT22;8303;53.446;9.988;2023-07-20T05:47:53;15.00;1.00
16388;DHT22;8303;53.446;9.988;2023-07-20T05:50:21;15.00;1.00
16388;DHT22;8303;53.446;9.988;2023-07-20T05:52:52;15.00;1.00
16388;DHT22;8303;53.446;9.988;2023-07-20T05:55:19;15.00;99.90
16388;DHT22;8303;53.446;9.988;2023-07-20T05:57:47;15.00;1.00
16388;DHT22;8303;53.446;9.988;2023-07-20T06:00:16;15.10;1.00
16388;DHT22;8303;53.446;9.988;2023-07-20T06:02:44;15.20;1.00
16388;DHT22;8303;53.446;9.988;2023-07-20T06:05:14;15.20;1.00
16388;DHT22;8303;53.446;9.988;2023-07-20T06:07:43;15.30;99.90
16388;DHT22;8303;53.446;9.988;2023-07-20T06:10:09;15.40;99.90
16388;DHT22;8303;53.446;9.988;2023-07-20T06:12:36;15.50;1.00
16388;DHT22;8303;53.446;9.988;2023-07-20T06:15:04;15.60;1.00
16388;DHT22;8303;53.446;9.988;2023-07-20T06:17:32;15.60;99.90
16388;DHT22;8303;53.446;9.988;2023-07-20T06:20:00;15.70;1.00
16388;DHT22;8303;53.446;9.988;2023-07-20T06:22:27;15.90;99.90
16388;DHT22;8303;53.446;9.988;2023-07-20T06:24:56;15.90;2.80
16388;DHT22;8303;53.446;9.988;2023-07-20T06:27:23;15.90;1.00
16388;DHT22;8303;53.446;9.988;2023-07-20T06:29:50;15.90;99.90
16388;DHT22;8303;53.446;9.988;2023-07-20T06:32:22;16.00;1.00
16388;DHT22;8303;53.446;9.988;2023-07-20T06:34:50;16.10;99.90
16388;DHT22;8303;53.446;9.988;2023-07-20T06:37:17;16.20;99.90
16388;DHT22;8303;53.446;9.988;2023-07-20T06:39:45;16.40;1.00
16388;DHT22;8303;53.446;9.988;2023-07-20T06:42:14;16.40;1.00
16388;DHT22;8303;53.446;9.988;2023-07-20T06:44:41;16.40;1.00
16388;DHT22;8303;53.446;9.988;2023-07-20T06:47:08;16.50;1.00
16388;DHT22;8303;53.446;9.988;2023-07-20T06:49:35;16.70;99.90
16388;DHT22;8303;53.446;9.988;2023-07-20T06:52:02;16.80;99.90
16388;DHT22;8303;53.446;9.988;2023-07-20T06:54:30;17.00;27.00
16388;DHT22;8303;53.446;9.988;2023-07-20T06:56:57;17.10;99.90
16388;DHT22;8303;53.446;9.988;2023-07-20T06:59:25;17.10;99.90
16388;DHT22;8303;53.446;9.988;2023-07-20T07:01:52;16.80;99.90
16388;DHT22;8303;53.446;9.988;2023-07-20T07:04:19;17.00;99.90
16388;DHT22;8303;53.446;9.988;2023-07-20T07:06:46;17.10;99.90
16388;DHT22;8303;53.446;9.988;2023-07-20T07:09:14;17.20;1.00
16388;DHT22;8303;53.446;9.988;2023-07-20T07:11:41;17.40;1.00
16388;DHT22;8303;53.446;9.988;2023-07-20T07:14:08;17.50;1.00
16388;DHT22;8303;53.446;9.988;2023-07-20T07:16:36;17.50;99.90
16388;DHT22;8303;53.446;9.988;2023-07-20T07:19:03;17.30;99.90
16388;DHT22;8303;53.446;9.988;2023-07-20T07:21:31;17.50;1.00
16388;DHT22;8303;53.446;9.988;2023-07-20T07:23:58;17.60;1.00
16388;DHT22;8303;53.446;9.988;2023-07-20T07:26:25;17.80;99.90
16388;DHT22;8303;53.446;9.988;2023-07-20T07:28:54;18.20;1.00
16388;DHT22;8303;53.446;9.988;2023-07-20T07:31:21;18.30;1.00
16388;DHT22;8303;53.446;9.988;2023-07-20T07:33:50;18.10;1.00
16388;DHT22;8303;53.446;9.988;2023-07-20T07:36:17;17.70;99.90
16388;DHT22;8303;53.446;9.988;2023-07-20T07:38:44;17.80;27.90
16388;DHT22;8303;53.446;9.988;2023-07-20T07:41:11;17.80;99.90
16388;DHT22;8303;53.446;9.988;2023-07-20T07:43:38;18.00;99.90
16388;DHT22;8303;53.446;9.988;2023-07-20T07:46:05;17.80;52.70
16388;DHT22;8303;53.446;9.988;2023-07-20T07:48:32;17.70;99.90
16388;DHT22;8303;53.446;9.988;2023-07-20T07:51:01;17.80;99.90
16388;DHT22;8303;53.446;9.988;2023-07-20T07:53:28;17.80;31.00
16388;DHT22;8303;53.446;9.988;2023-07-20T07:55:55;17.90;1.00
16388;DHT22;8303;53.446;9.988;2023-07-20T07:58:22;18.00;1.00
16388;DHT22;8303;53.446;9.988;2023-07-20T08:00:49;18.00;1.00
16388;DHT22;8303;53.446;9.988;2023-07-20T08:03:16;18.10;1.00
16388;DHT22;8303;53.446;9.988;2023-07-20T08:05:44;17.90;99.90
16388;DHT22;8303;53.446;9.988;2023-07-20T08:08:12;18.10;99.90
16388;DHT22;8303;53.446;9.988;2023-07-20T08:10:39;18.30;1.00
16388;DHT22;8303;53.446;9.988;2023-07-20T08:13:06;18.40;1.00
16388;DHT22;8303;53.446;9.988;2023-07-20T08:15:33;18.40;1.00
16388;DHT22;8303;53.446;9.988;2023-07-20T08:18:03;18.30;1.00
16388;DHT22;8303;53.446;9.988;2023-07-20T08:20:30;18.60;1.00
16388;DHT22;8303;53.446;9.988;2023-07-20T08:22:58;18.80;1.00
16388;DHT22;8303;53.446;9.988;2023-07-20T08:25:26;18.70;1.00
16388;DHT22;8303;53.446;9.988;2023-07-20T08:27:53;18.50;1.00
16388;DHT22;8303;53.446;9.988;2023-07-20T08:30:21;18.10;1.00
16388;DHT22;8303;53.446;9.988;2023-07-20T08:32:49;18.10;1.00
16388;DHT22;8303;53.446;9.988;2023-07-20T08:35:16;18.00;1.00
16388;DHT22;8303;53.446;9.988;2023-07-20T08:37:44;18.20;1.00
16388;DHT22;8303;53.446;9.988;2023-07-20T08:40:12;18.60;1.00
16388;DHT22;8303;53.446;9.988;2023-07-20T08:42:42;18.80;1.00
16388;DHT22;8303;53.446;9.988;2023-07-20T08:45:13;18.90;1.00
16388;DHT22;8303;53.446;9.988;2023-07-20T08:47:41;19.00;1.00
16388;DHT22;8303;53.446;9.988;2023-07-20T08:50:10;19.20;1.00
16388;DHT22;8303;53.446;9.988;2023-07-20T08:52:38;19.50;1.00
16388;DHT22;8303;53.446;9.988;2023-07-20T08:55:06;19.40;1.00
16388;DHT22;8303;53.446;9.988;2023-07-20T08:57:34;19.20;1.00
16388;DHT22;8303;53.446;9.988;2023-07-20T09:00:04;19.20;1.00
16388;DHT22;8303;53.446;9.988;2023-07-20T09:02:35;19.30;1.00
16388;DHT22;8303;53.446;9.988;2023-07-20T09:05:08;19.30;1.00
16388;DHT22;8303;53.446;9.988;2023-07-20T09:07:36;19.20;1.00
16388;DHT22;8303;53.446;9.988;2023-07-20T09:10:04;18.90;1.00
16388;DHT22;8303;53.446;9.988;2023-07-20T09:12:32;18.50;1.00
16388;DHT22;8303;53.446;9.988;2023-07-20T09:14:59;18.50;1.00
16388;DHT22;8303;53.446;9.988;2023-07-20T09:17:28;18.60;1.00
16388;DHT22;8303;53.446;9.988;2023-07-20T09:19:55;18.70;1.00
16388;DHT22;8303;53.446;9.988;2023-07-20T09:22:22;18.70;1.00
16388;DHT22;8303;53.446;9.988;2023-07-20T09:24:56;18.90;1.00
16388;DHT22;8303;53.446;9.988;2023-07-20T09:27:34;19.10;1.00
16388;DHT22;8303;53.446;9.988;2023-07-20T09:30:02;19.60;1.00
16388;DHT22;8303;53.446;9.988;2023-07-20T09:32:30;20.10;1.00
16388;DHT22;8303;53.446;9.988;2023-07-20T09:34:57;20.40;1.00
16388;DHT22;8303;53.446;9.988;2023-07-20T09:37:24;20.70;1.00
16388;DHT22;8303;53.446;9.988;2023-07-20T09:39:52;20.40;1.00
16388;DHT22;8303;53.446;9.988;2023-07-20T09:42:21;20.10;1.00
16388;DHT22;8303;53.446;9.988;2023-07-20T09:44:53;19.80;1.00
16388;DHT22;8303;53.446;9.988;2023-07-20T09:47:24;19.90;1.00
16388;DHT22;8303;53.446;9.988;2023-07-20T09:49:58;19.90;1.00
16388;DHT22;8303;53.446;9.988;2023-07-20T09:52:26;19.70;1.00
16388;DHT22;8303;53.446;9.988;2023-07-20T09:54:54;19.10;1.00
16388;DHT22;8303;53.446;9.988;2023-07-20T09:57:21;17.80;99.90
16388;DHT22;8303;53.446;9.988;2023-07-20T09:59:49;16.60;99.90
16388;DHT22;8303;53.446;9.988;2023-07-20T10:02:21;16.10;1.00
16388;DHT22;8303;53.446;9.988;2023-07-20T10:04:52;15.80;54.30
16388;DHT22;8303;53.446;9.988;2023-07-20T10:07:22;15.70;99.90
16388;DHT22;8303;53.446;9.988;2023-07-20T10:09:52;15.90;99.90
16388;DHT22;8303;53.446;9.988;2023-07-20T10:12:22;16.30;99.90
16388;DHT22;8303;53.446;9.988;2023-07-20T10:14:57;16.70;1.00
16388;DHT22;8303;53.446;9.988;2023-07-20T10:17:27;17.00;99.90
16388;DHT22;8303;53.446;9.988;2023-07-20T10:19:56;17.30;99.90
16388;DHT22;8303;53.446;9.988;2023-07-20T10:22:26;17.50;62.20
16388;DHT22;8303;53.446;9.988;2023-07-20T10:24:54;17.90;1.00
16388;DHT22;8303;53.446;9.988;2023-07-20T10:27:24;18.30;99.90
16388;DHT22;8303;53.446;9.988;2023-07-20T10:29:52;18.40;1.00
16388;DHT22;8303;53.446;9.988;2023-07-20T10:32:20;18.80;99.90
16388;DHT22;8303;53.446;9.988;2023-07-20T10:34:51;19.20;1.00
16388;DHT22;8303;53.446;9.988;2023-07-20T10:37:51;19.20;99.90
16388;DHT22;8303;53.446;9.988;2023-07-20T10:40:32;19.20;99.90
16388;DHT22;8303;53.446;9.988;2023-07-20T10:43:02;18.80;1.00
16388;DHT22;8303;53.446;9.988;2023-07-20T10:45:47;18.50;1.00
16388;DHT22;8303;53.446;9.988;2023-07-20T10:48:16;18.60;68.90
16388;DHT22;8303;53.446;9.988;2023-07-20T10:50:46;18.90;1.00
16388;DHT22;8303;53.446;9.988;2023-07-20T10:53:18;19.40;1.00
16388;DHT22;8303;53.446;9.988;2023-07-20T10:55:45;19.90;1.00
16388;DHT22;8303;53.446;9.988;2023-07-20T10:58:16;20.30;1.00
16388;DHT22;8303;53.446;9.988;2023-07-20T11:00:57;20.40;1.00
16388;DHT22;8303;53.446;9.988;2023-07-20T11:03:30;20.40;1.00
16388;DHT22;8303;53.446;9.988;2023-07-20T11:05:57;20.10;1.00
16388;DHT22;8303;53.446;9.988;2023-07-20T11:08:47;19.70;1.00
16388;DHT22;8303;53.446;9.988;2023-07-20T11:11:25;19.40;1.00
16388;DHT22;8303;53.446;9.988;2023-07-20T11:13:56;19.20;1.00
16388;DHT22;8303;53.446;9.988;2023-07-20T11:16:39;19.10;1.00
16388;DHT22;8303;53.446;9.988;2023-07-20T11:19:14;18.80;1.00
16388;DHT22;8303;53.446;9.988;2023-07-20T11:21:43;18.40;1.00
16388;DHT22;8303;53.446;9.988;2023-07-20T11:24:12;17.80;1.00
16388;DHT22;8303;53.446;9.988;2023-07-20T11:26:47;17.10;99.90
16388;DHT22;8303;53.446;9.988;2023-07-20T11:29:15;16.60;1.00
16388;DHT22;8303;53.446;9.988;2023-07-20T11:31:44;16.30;97.20
16388;DHT22;8303;53.446;9.988;2023-07-20T11:34:13;16.10;53.20
16388;DHT22;8303;53.446;9.988;2023-07-20T11:36:41;16.10;99.90
16388;DHT22;8303;53.446;9.988;2023-07-20T11:39:09;16.20;1.00
16388;DHT22;8303;53.446;9.988;2023-07-20T11:41:38;16.30;1.00
16388;DHT22;8303;53.446;9.988;2023-07-20T11:44:06;16.40;1.00
16388;DHT22;8303;53.446;9.988;2023-07-20T11:46:34;16.70;99.90
16388;DHT22;8303;53.446;9.988;2023-07-20T11:49:02;17.10;1.00
16388;DHT22;8303;53.446;9.988;2023-07-20T11:51:30;17.40;1.00
16388;DHT22;8303;53.446;9.988;2023-07-20T11:53:57;17.50;99.90
16388;DHT22;8303;53.446;9.988;2023-07-20T11:56:25;17.80;1.00
16388;DHT22;8303;53.446;9.988;2023-07-20T11:58:57;18.00;1.00
16388;DHT22;8303;53.446;9.988;2023-07-20T12:01:26;18.20;1.00
16388;DHT22;8303;53.446;9.988;2023-07-20T12:03:55;18.60;1.00
16388;DHT22;8303;53.446;9.988;2023-07-20T12:06:23;19.10;1.00
16388;DHT22;8303;53.446;9.988;2023-07-20T12:08:53;19.50;99.90
16388;DHT22;8303;53.446;9.988;2023-07-20T12:11:32;19.90;1.00
16388;DHT22;8303;53.446;9.988;2023-07-20T12:14:01;20.00;1.00
16388;DHT22;8303;53.446;9.988;2023-07-20T12:16:29;19.90;1.00
16388;DHT22;8303;53.446;9.988;2023-07-20T12:19:00;19.70;1.00
16388;DHT22;8303;53.446;9.988;2023-07-20T12:21:28;19.80;1.00
16388;DHT22;8303;53.446;9.988;2023-07-20T12:23:56;20.00;1.00
16388;DHT22;8303;53.446;9.988;2023-07-20T12:26:23;20.20;1.00
16388;DHT22;8303;53.446;9.988;2023-07-20T12:28:51;20.10;1.00
16388;DHT22;8303;53.446;9.988;2023-07-20T12:31:19;19.90;1.00
16388;DHT22;8303;53.446;9.988;2023-07-20T12:33:48;19.30;1.00
16388;DHT22;8303;53.446;9.988;2023-07-20T12:36:15;19.10;1.00
16388;DHT22;8303;53.446;9.988;2023-07-20T12:38:42;19.50;1.00
16388;DHT22;8303;53.446;9.988;2023-07-20T12:41:11;19.70;1.00
16388;DHT22;8303;53.446;9.988;2023-07-20T12:43:39;19.20;1.00
16388;DHT22;8303;53.446;9.988;2023-07-20T12:46:07;18.90;1.00
16388;DHT22;8303;53.446;9.988;2023-07-20T12:48:36;18.30;1.00
16388;DHT22;8303;53.446;9.988;2023-07-20T12:51:05;18.40;1.00
16388;DHT22;8303;53.446;9.988;2023-07-20T12:53:33;18.40;1.00
16388;DHT22;8303;53.446;9.988;2023-07-20T12:56:00;18.40;1.00
16388;DHT22;8303;53.446;9.988;2023-07-20T12:58:27;18.50;1.00
16388;DHT22;8303;53.446;9.988;2023-07-20T13:00:55;18.90;1.00
16388;DHT22;8303;53.446;9.988;2023-07-20T13:03:25;18.90;1.00
16388;DHT22;8303;53.446;9.988;2023-07-20T13:05:53;18.90;1.00
16388;DHT22;8303;53.446;9.988;2023-07-20T13:08:20;19.20;1.00
16388;DHT22;8303;53.446;9.988;2023-07-20T13:10:50;19.90;1.00
16388;DHT22;8303;53.446;9.988;2023-07-20T13:13:18;20.40;1.00
16388;DHT22;8303;53.446;9.988;2023-07-20T13:15:45;20.70;1.00
16388;DHT22;8303;53.446;9.988;2023-07-20T13:18:13;20.40;1.00
16388;DHT22;8303;53.446;9.988;2023-07-20T13:20:40;20.30;1.00
16388;DHT22;8303;53.446;9.988;2023-07-20T13:23:09;20.40;99.90
16388;DHT22;8303;53.446;9.988;2023-07-20T13:25:36;20.60;99.90
16388;DHT22;8303;53.446;9.988;2023-07-20T13:28:04;21.10;99.90
16388;DHT22;8303;53.446;9.988;2023-07-20T13:30:31;20.80;99.90
16388;DHT22;8303;53.446;9.988;2023-07-20T13:32:59;20.90;99.90
16388;DHT22;8303;53.446;9.988;2023-07-20T13:35:26;21.50;99.90
16388;DHT22;8303;53.446;9.988;2023-07-20T13:37:53;21.30;99.90
16388;DHT22;8303;53.446;9.988;2023-07-20T13:40:22;20.50;99.90
16388;DHT22;8303;53.446;9.988;2023-07-20T13:42:50;20.00;99.90
16388;DHT22;8303;53.446;9.988;2023-07-20T13:45:17;19.70;99.90
16388;DHT22;8303;53.446;9.988;2023-07-20T13:47:43;19.80;99.90
16388;DHT22;8303;53.446;9.988;2023-07-20T13:50:10;20.30;99.90
16388;DHT22;8303;53.446;9.988;2023-07-20T13:52:37;21.30;99.90
16388;DHT22;8303;53.446;9.988;2023-07-20T13:55:05;21.80;99.90
16388;DHT22;8303;53.446;9.988;2023-07-20T13:57:33;21.30;99.90
16388;DHT22;8303;53.446;9.988;2023-07-20T14:00:00;21.40;99.90
16388;DHT22;8303;53.446;9.988;2023-07-20T14:02:30;21.10;99.90
16388;DHT22;8303;53.446;9.988;2023-07-20T14:04:57;21.60;99.90
16388;DHT22;8303;53.446;9.988;2023-07-20T14:07:24;22.30;99.90
16388;DHT22;8303;53.446;9.988;2023-07-20T14:09:51;22.10;99.90
16388;DHT22;8303;53.446;9.988;2023-07-20T14:12:18;21.60;99.90
16388;DHT22;8303;53.446;9.988;2023-07-20T14:14:46;20.80;99.90
16388;DHT22;8303;53.446;9.988;2023-07-20T14:17:13;21.60;99.90
16388;DHT22;8303;53.446;9.988;2023-07-20T14:19:40;22.00;99.90
16388;DHT22;8303;53.446;9.988;2023-07-20T14:22:07;22.30;99.90
16388;DHT22;8303;53.446;9.988;2023-07-20T14:24:34;22.30;99.90
16388;DHT22;8303;53.446;9.988;2023-07-20T14:27:01;22.30;99.90
16388;DHT22;8303;53.446;9.988;2023-07-20T14:29:28;22.50;99.90
16388;DHT22;8303;53.446;9.988;2023-07-20T14:31:58;22.50;99.90
16388;DHT22;8303;53.446;9.988;2023-07-20T14:34:25;23.00;99.90
16388;DHT22;8303;53.446;9.988;2023-07-20T14:36:52;23.20;99.90
16388;DHT22;8303;53.446;9.988;2023-07-20T14:39:20;23.30;99.90
16388;DHT22;8303;53.446;9.988;2023-07-20T14:41:49;23.80;99.90
16388;DHT22;8303;53.446;9.988;2023-07-20T14:44:16;22.60;99.90
16388;DHT22;8303;53.446;9.988;2023-07-20T14:46:43;22.50;99.90
16388;DHT22;8303;53.446;9.988;2023-07-20T14:49:12;23.50;99.90
16388;DHT22;8303;53.446;9.988;2023-07-20T14:51:39;23.40;99.90
16388;DHT22;8303;53.446;9.988;2023-07-20T14:54:09;23.30;99.90
16388;DHT22;8303;53.446;9.988;2023-07-20T14:56:38;23.70;99.90
16388;DHT22;8303;53.446;9.988;2023-07-20T14:59:06;24.40;99.90
16388;DHT22;8303;53.446;9.988;2023-07-20T15:01:33;23.50;99.90
16388;DHT22;8303;53.446;9.988;2023-07-20T15:04:00;23.50;99.90
16388;DHT22;8303;53.446;9.988;2023-07-20T15:06:29;22.90;99.90
16388;DHT22;8303;53.446;9.988;2023-07-20T15:08:56;23.10;99.90
16388;DHT22;8303;53.446;9.988;2023-07-20T15:11:24;23.60;99.90
16388;DHT22;8303;53.446;9.988;2023-07-20T15:13:51;23.00;99.90
16388;DHT22;8303;53.446;9.988;2023-07-20T15:16:21;22.30;99.90
16388;DHT22;8303;53.446;9.988;2023-07-20T15:18:48;22.70;99.90
16388;DHT22;8303;53.446;9.988;2023-07-20T15:21:15;23.20;99.90
16388;DHT22;8303;53.446;9.988;2023-07-20T15:23:44;23.60;99.90
16388;DHT22;8303;53.446;9.988;2023-07-20T15:26:11;22.70;99.90
16388;DHT22;8303;53.446;9.988;2023-07-20T15:28:39;22.10;99.90
16388;DHT22;8303;53.446;9.988;2023-07-20T15:31:06;21.60;99.90
16388;DHT22;8303;53.446;9.988;2023-07-20T15:33:33;21.40;99.90
16388;DHT22;8303;53.446;9.988;2023-07-20T15:36:01;20.90;99.90
16388;DHT22;8303;53.446;9.988;2023-07-20T15:38:28;21.80;99.90
16388;DHT22;8303;53.446;9.988;2023-07-20T15:40:57;21.30;99.90
16388;DHT22;8303;53.446;9.988;2023-07-20T15:43:29;23.40;99.90
16388;DHT22;8303;53.446;9.988;2023-07-20T15:46:30;24.90;99.90
16388;DHT22;8303;53.446;9.988;2023-07-20T15:49:05;26.00;99.90
16388;DHT22;8303;53.446;9.988;2023-07-20T15:51:33;27.90;99.90
16388;DHT22;8303;53.446;9.988;2023-07-20T15:54:02;27.00;99.90
16388;DHT22;8303;53.446;9.988;2023-07-20T15:56:29;26.40;99.90
16388;DHT22;8303;53.446;9.988;2023-07-20T15:58:55;26.70;99.90
16388;DHT22;8303;53.446;9.988;2023-07-20T16:01:22;26.50;99.90
16388;DHT22;8303;53.446;9.988;2023-07-20T16:03:49;25.90;99.90
16388;DHT22;8303;53.446;9.988;2023-07-20T16:06:18;24.70;99.90
16388;DHT22;8303;53.446;9.988;2023-07-20T16:08:45;25.60;99.90
16388;DHT22;8303;53.446;9.988;2023-07-20T16:11:12;28.20;99.90
16388;DHT22;8303;53.446;9.988;2023-07-20T16:13:39;27.80;99.90
16388;DHT22;8303;53.446;9.988;2023-07-20T16:16:06;26.80;99.90
16388;DHT22;8303;53.446;9.988;2023-07-20T16:18:33;26.90;99.90
16388;DHT22;8303;53.446;9.988;2023-07-20T16:21:00;27.00;99.90
16388;DHT22;8303;53.446;9.988;2023-07-20T16:23:29;26.50;99.90
16388;DHT22;8303;53.446;9.988;2023-07-20T16:25:56;27.00;99.90
16388;DHT22;8303;53.446;9.988;2023-07-20T16:28:23;25.60;99.90
16388;DHT22;8303;53.446;9.988;2023-07-20T16:30:50;26.70;99.90
16388;DHT22;8303;53.446;9.988;2023-07-20T16:33:19;26.00;99.90
16388;DHT22;8303;53.446;9.988;2023-07-20T16:35:46;24.80;99.90
16388;DHT22;8303;53.446;9.988;2023-07-20T16:38:14;26.20;99.90
16388;DHT22;8303;53.446;9.988;2023-07-20T16:40:42;24.50;99.90
16388;DHT22;8303;53.446;9.988;2023-07-20T16:43:09;24.90;99.90
16388;DHT22;8303;53.446;9.988;2023-07-20T16:45:36;25.70;99.90
16388;DHT22;8303;53.446;9.988;2023-07-20T16:48:03;24.10;99.90
16388;DHT22;8303;53.446;9.988;2023-07-20T16:50:31;22.20;99.90
16388;DHT22;8303;53.446;9.988;2023-07-20T16:52:58;22.10;99.90
16388;DHT22;8303;53.446;9.988;2023-07-20T16:55:25;23.90;99.90
16388;DHT22;8303;53.446;9.988;2023-07-20T16:57:54;24.20;99.90
16388;DHT22;8303;53.446;9.988;2023-07-20T17:00:21;24.50;99.90
16388;DHT22;8303;53.446;9.988;2023-07-20T17:02:48;24.40;99.90
16388;DHT22;8303;53.446;9.988;2023-07-20T17:05:15;24.60;99.90
16388;DHT22;8303;53.446;9.988;2023-07-20T17:07:42;25.10;99.90
16388;DHT22;8303;53.446;9.988;2023-07-20T17:10:09;24.70;99.90
16388;DHT22;8303;53.446;9.988;2023-07-20T17:12:37;24.90;99.90
16388;DHT22;8303;53.446;9.988;2023-07-20T17:15:07;24.40;99.90
16388;DHT22;8303;53.446;9.988;2023-07-20T17:17:35;25.60;99.90
16388;DHT22;8303;53.446;9.988;2023-07-20T17:20:02;25.80;99.90
16388;DHT22;8303;53.446;9.988;2023-07-20T17:22:31;26.50;99.90
16388;DHT22;8303;53.446;9.988;2023-07-20T17:24:58;26.00;99.90
16388;DHT22;8303;53.446;9.988;2023-07-20T17:27:25;26.10;99.90
16388;DHT22;8303;53.446;9.988;2023-07-20T17:29:52;26.00;99.90
16388;DHT22;8303;53.446;9.988;2023-07-20T17:32:22;25.60;99.90
16388;DHT22;8303;53.446;9.988;2023-07-20T17:34:49;26.20;99.90
16388;DHT22;8303;53.446;9.988;2023-07-20T17:37:16;25.90;99.90
16388;DHT22;8303;53.446;9.988;2023-07-20T17:39:46;26.10;99.90
16388;DHT22;8303;53.446;9.988;2023-07-20T17:42:13;26.30;99.90
16388;DHT22;8303;53.446;9.988;2023-07-20T17:44:41;26.30;99.90
16388;DHT22;8303;53.446;9.988;2023-07-20T17:47:08;26.10;99.90
16388;DHT22;8303;53.446;9.988;2023-07-20T17:49:37;26.00;99.90
16388;DHT22;8303;53.446;9.988;2023-07-20T17:52:04;25.00;99.90
16388;DHT22;8303;53.446;9.988;2023-07-20T17:54:31;24.60;99.90
16388;DHT22;8303;53.446;9.988;2023-07-20T17:56:59;24.60;99.90
16388;DHT22;8303;53.446;9.988;2023-07-20T17:59:26;24.30;99.90
16388;DHT22;8303;53.446;9.988;2023-07-20T18:01:54;24.00;99.90
16388;DHT22;8303;53.446;9.988;2023-07-20T18:04:21;23.60;99.90
16388;DHT22;8303;53.446;9.988;2023-07-20T18:06:49;24.60;99.90
16388;DHT22;8303;53.446;9.988;2023-07-20T18:09:16;24.60;99.90
16388;DHT22;8303;53.446;9.988;2023-07-20T18:11:43;23.40;99.90
16388;DHT22;8303;53.446;9.988;2023-07-20T18:14:10;23.20;99.90
16388;DHT22;8303;53.446;9.988;2023-07-20T18:16:37;22.90;99.90
16388;DHT22;8303;53.446;9.988;2023-07-20T18:19:04;21.80;99.90
16388;DHT22;8303;53.446;9.988;2023-07-20T18:21:31;20.60;99.90
16388;DHT22;8303;53.446;9.988;2023-07-20T18:23:59;20.10;99.90
16388;DHT22;8303;53.446;9.988;2023-07-20T18:26:26;20.20;99.90
16388;DHT22;8303;53.446;9.988;2023-07-20T18:28:53;19.70;99.90
16388;DHT22;8303;53.446;9.988;2023-07-20T18:31:20;19.20;99.90
16388;DHT22;8303;53.446;9.988;2023-07-20T18:33:47;18.70;99.90
16388;DHT22;8303;53.446;9.988;2023-07-20T18:36:14;18.60;99.90
16388;DHT22;8303;53.446;9.988;2023-07-20T18:38:41;18.40;99.90
16388;DHT22;8303;53.446;9.988;2023-07-20T18:41:10;18.30;99.90
16388;DHT22;8303;53.446;9.988;2023-07-20T18:43:37;18.30;99.90
16388;DHT22;8303;53.446;9.988;2023-07-20T18:46:04;18.20;99.90
16388;DHT22;8303;53.446;9.988;2023-07-20T18:48:32;18.00;99.90
16388;DHT22;8303;53.446;9.988;2023-07-20T18:50:59;17.90;99.90
16388;DHT22;8303;53.446;9.988;2023-07-20T18:53:26;17.80;99.90
16388;DHT22;8303;53.446;9.988;2023-07-20T18:55:53;17.80;99.90
16388;DHT22;8303;53.446;9.988;2023-07-20T18:58:21;17.70;99.90
16388;DHT22;8303;53.446;9.988;2023-07-20T19:00:49;17.70;99.90
16388;DHT22;8303;53.446;9.988;2023-07-20T19:03:16;17.70;99.90
16388;DHT22;8303;53.446;9.988;2023-07-20T19:05:44;17.60;99.90
16388;DHT22;8303;53.446;9.988;2023-07-20T19:08:11;17.60;99.90
16388;DHT22;8303;53.446;9.988;2023-07-20T19:10:38;17.50;99.90
16388;DHT22;8303;53.446;9.988;2023-07-20T19:13:05;17.50;99.90
16388;DHT22;8303;53.446;9.988;2023-07-20T19:15:34;17.50;99.90
16388;DHT22;8303;53.446;9.988;2023-07-20T19:18:01;17.40;99.90
16388;DHT22;8303;53.446;9.988;2023-07-20T19:20:28;17.40;99.90
16388;DHT22;8303;53.446;9.988;2023-07-20T19:22:55;17.30;99.90
16388;DHT22;8303;53.446;9.988;2023-07-20T19:25:22;17.30;99.90
16388;DHT22;8303;53.446;9.988;2023-07-20T19:27:49;17.30;99.90
16388;DHT22;8303;53.446;9.988;2023-07-20T19:30:16;17.40;99.90
16388;DHT22;8303;53.446;9.988;2023-07-20T19:32:45;17.30;99.90
16388;DHT22;8303;53.446;9.988;2023-07-20T19:35:12;17.20;99.90
16388;DHT22;8303;53.446;9.988;2023-07-20T19:37:39;17.20;99.90
16388;DHT22;8303;53.446;9.988;2023-07-20T19:40:07;17.20;99.90
16388;DHT22;8303;53.446;9.988;2023-07-20T19:42:35;17.20;99.90
16388;DHT22;8303;53.446;9.988;2023-07-20T19:45:03;17.10;99.90
16388;DHT22;8303;53.446;9.988;2023-07-20T19:47:30;17.10;1.00
16388;DHT22;8303;53.446;9.988;2023-07-20T19:49:58;17.10;99.90
16388;DHT22;8303;53.446;9.988;2023-07-20T19:52:25;17.10;99.90
16388;DHT22;8303;53.446;9.988;2023-07-20T19:54:52;17.10;99.90
16388;DHT22;8303;53.446;9.988;2023-07-20T19:57:19;17.00;99.90
16388;DHT22;8303;53.446;9.988;2023-07-20T19:59:46;17.00;1.00
16388;DHT22;8303;53.446;9.988;2023-07-20T20:02:13;17.00;99.90
16388;DHT22;8303;53.446;9.988;2023-07-20T20:04:40;17.00;1.00
16388;DHT22;8303;53.446;9.988;2023-07-20T20:07:09;17.00;1.00
16388;DHT22;8303;53.446;9.988;2023-07-20T20:09:38;17.00;1.00
16388;DHT22;8303;53.446;9.988;2023-07-20T20:12:07;17.00;1.00
16388;DHT22;8303;53.446;9.988;2023-07-20T20:14:34;17.00;1.00
16388;DHT22;8303;53.446;9.988;2023-07-20T20:17:02;16.90;1.00
16388;DHT22;8303;53.446;9.988;2023-07-20T20:19:29;16.90;1.00
16388;DHT22;8303;53.446;9.988;2023-07-20T20:21:56;16.90;1.00
16388;DHT22;8303;53.446;9.988;2023-07-20T20:24:27;16.90;1.00
16388;DHT22;8303;53.446;9.988;2023-07-20T20:26:54;16.90;1.00
16388;DHT22;8303;53.446;9.988;2023-07-20T20:29:21;16.80;1.00
